createdAt,value
2018-05-27T06:12:19.941Z,22.00
2018-05-27T06:15:03.191Z,22.30
2018-05-27T06:17:39.395Z,22.50
2018-05-27T06:20:15.729Z,22.60
2018-05-27T06:22:51.898Z,22.90
2018-05-27T06:25:28.095Z,23.20
2018-05-27T06:28:04.251Z,23.20
2018-05-27T06:30:40.414Z,23.20
2018-05-27T06:33:16.607Z,23.40
2018-05-27T06:35:53.127Z,23.70
2018-05-27T06:38:29.386Z,23.50
2018-05-27T06:41:05.060Z,23.40
2018-05-27T06:43:41.323Z,23.30
2018-05-27T06:46:17.606Z,23.40
2018-05-27T06:48:53.855Z,23.40
2018-05-27T06:51:30.218Z,23.40
2018-05-27T06:54:06.753Z,23.70
2018-05-27T06:56:43.055Z,23.90
2018-05-27T06:59:19.258Z,24.40
2018-05-27T07:01:56.356Z,24.70
2018-05-27T07:04:32.560Z,24.70
2018-05-27T07:07:08.983Z,24.80
2018-05-27T07:09:44.984Z,24.90
2018-05-27T07:12:20.935Z,24.90
2018-05-27T07:14:57.725Z,25.10
2018-05-27T07:17:33.607Z,25.10
2018-05-27T07:20:09.581Z,25.50
2018-05-27T07:22:45.456Z,25.60
2018-05-27T07:25:22.092Z,25.50
2018-05-27T07:27:58.163Z,25.50
2018-05-27T07:30:34.077Z,25.60
2018-05-27T07:33:09.981Z,25.90
2018-05-27T07:35:45.886Z,25.90
2018-05-27T07:38:21.664Z,25.90
2018-05-27T07:40:57.565Z,26.30
2018-05-27T07:43:33.447Z,26.50
2018-05-27T07:46:09.600Z,26.60
2018-05-27T07:48:45.568Z,26.30
2018-05-27T07:51:22.336Z,26.60
2018-05-27T07:53:58.329Z,26.50
2018-05-27T07:56:34.406Z,27.10
2018-05-27T07:59:11.102Z,27.00
2018-05-27T08:01:47.020Z,27.00
2018-05-27T08:04:23.106Z,26.80
2018-05-27T08:06:59.995Z,26.60
2018-05-27T08:09:35.820Z,26.80
2018-05-27T08:12:11.749Z,26.80
2018-05-27T08:14:48.375Z,26.00
2018-05-27T08:17:23.925Z,26.00
2018-05-27T08:20:00.168Z,26.00
2018-05-27T08:22:36.288Z,26.00
2018-05-27T08:25:12.162Z,26.40
2018-05-27T08:27:48.132Z,26.80
2018-05-27T08:30:24.948Z,27.00
2018-05-27T08:33:00.827Z,27.00
2018-05-27T08:35:37.590Z,27.40
2018-05-27T08:38:13.503Z,27.30
2018-05-27T08:40:49.496Z,27.50
2018-05-27T08:43:25.458Z,27.60
2018-05-27T08:46:01.596Z,28.00
2018-05-27T08:48:37.658Z,28.50
2018-05-27T08:51:13.582Z,28.80
2018-05-27T08:53:49.432Z,29.00
2018-05-27T08:56:25.405Z,29.20
2018-05-27T08:59:01.260Z,29.00
2018-05-27T09:01:37.197Z,28.50
2018-05-27T09:04:13.170Z,28.60
2018-05-27T09:06:48.985Z,28.40
2018-05-27T09:09:25.079Z,28.30
2018-05-27T09:12:01.428Z,28.30
2018-05-27T09:14:37.311Z,28.40
2018-05-27T09:17:13.284Z,28.40
2018-05-27T09:19:49.148Z,28.60
2018-05-27T09:22:24.960Z,28.90
2018-05-27T09:25:01.639Z,28.80
2018-05-27T09:27:38.637Z,28.70
2018-05-27T09:30:14.804Z,28.70
2018-05-27T09:32:50.773Z,28.50
2018-05-27T09:35:26.637Z,28.60
2018-05-27T09:38:03.303Z,27.80
2018-05-27T09:40:39.109Z,27.80
2018-05-27T09:43:15.680Z,27.10
2018-05-27T10:11:39.568Z,18.70
